Time;durP1;ratioP1;P1;durP2;ratioP2;P2;SDS_P1;SDS_P2;PMS_P1;PMS_P2;Temp;Humidity;BMP_temperature;BMP_pressure;BME280_temperature;BME280_humidity;BME280_pressure;Samples;Min_cycle;Max_cycle;Signal;HPM_P1;HPM_P2
2022/03/31 00:00:19;;;;;;;15.03;11.83;;;9.80;99.90;;;;;;5032667;28;20305;-62
2022/03/31 00:02:47;;;;;;;16.17;12.10;;;9.80;99.90;;;;;;5032475;28;20202;-62
2022/03/31 00:05:14;;;;;;;15.80;12.03;;;9.80;99.90;;;;;;5032762;28;20284;-62
2022/03/31 00:07:51;;;;;;;15.83;12.37;;;9.80;99.90;;;;;;5032286;28;20308;-62
2022/03/31 00:10:23;;;;;;;15.67;12.70;;;9.80;99.90;;;;;;5032281;28;20725;-62
2022/03/31 00:12:50;;;;;;;16.80;12.73;;;9.70;99.90;;;;;;5032325;28;20256;-62
2022/03/31 00:15:19;;;;;;;15.97;12.53;;;9.80;99.90;;;;;;5032766;28;20213;-62
2022/03/31 00:17:46;;;;;;;16.63;12.07;;;9.80;99.90;;;;;;5032291;28;20556;-62
2022/03/31 00:20:13;;;;;;;15.13;11.83;;;9.80;99.90;;;;;;5032453;28;20229;-62
2022/03/31 00:22:41;;;;;;;15.07;11.83;;;9.80;99.90;;;;;;5032569;28;20284;-62
2022/03/31 00:25:10;;;;;;;14.03;11.17;;;9.80;99.90;;;;;;5032532;28;20686;-63
2022/03/31 00:27:38;;;;;;;14.53;11.60;;;9.80;99.90;;;;;;5032001;28;20226;-62
2022/03/31 00:30:07;;;;;;;14.53;12.17;;;9.80;99.90;;;;;;5032185;28;20226;-62
2022/03/31 00:32:35;;;;;;;12.67;11.00;;;9.80;99.90;;;;;;5032401;28;20229;-62
2022/03/31 00:35:03;;;;;;;14.37;11.03;;;9.80;99.90;;;;;;5032547;28;20229;-63
2022/03/31 00:37:30;;;;;;;13.23;10.70;;;9.80;99.90;;;;;;5032106;28;20675;-63
2022/03/31 00:39:57;;;;;;;12.33;10.63;;;9.80;99.90;;;;;;5032368;28;20280;-62
2022/03/31 00:42:24;;;;;;;12.70;10.50;;;9.80;99.90;;;;;;5032254;28;20202;-62
2022/03/31 00:44:51;;;;;;;12.83;10.43;;;9.70;99.90;;;;;;5032384;28;20209;-62
2022/03/31 00:47:20;;;;;;;12.43;10.00;;;9.60;99.90;;;;;;5032270;28;20217;-63
2022/03/31 00:49:48;;;;;;;10.83;9.53;;;9.50;99.90;;;;;;5031627;28;20241;-62
2022/03/31 00:52:14;;;;;;;10.93;9.43;;;9.50;99.90;;;;;;5031798;28;20749;-62
2022/03/31 00:54:43;;;;;;;12.23;9.57;;;9.50;99.90;;;;;;5031880;28;20209;-63
2022/03/31 00:57:12;;;;;;;11.00;9.67;;;9.50;99.90;;;;;;5031651;28;20242;-63
2022/03/31 00:59:39;;;;;;;11.33;9.60;;;9.50;99.90;;;;;;5031726;28;20226;-62
2022/03/31 01:02:08;;;;;;;11.20;9.63;;;9.50;99.90;;;;;;5032461;28;20202;-63
2022/03/31 01:04:35;;;;;;;11.83;9.67;;;9.50;99.90;;;;;;5036078;28;20210;-62
2022/03/31 01:07:03;;;;;;;11.53;10.00;;;9.40;99.90;;;;;;5035774;28;20264;-63
2022/03/31 01:09:32;;;;;;;12.97;9.90;;;9.40;99.90;;;;;;5035338;28;20230;-63
2022/03/31 01:12:00;;;;;;;10.83;8.93;;;9.40;99.90;;;;;;5035945;28;20213;-62
2022/03/31 01:14:27;;;;;;;12.53;10.53;;;9.40;99.90;;;;;;5035842;28;20210;-62
2022/03/31 01:16:53;;;;;;;11.83;10.03;;;9.30;99.90;;;;;;5035542;28;20674;-63
2022/03/31 01:19:20;;;;;;;10.67;9.40;;;9.30;99.90;;;;;;5035306;28;20294;-63
2022/03/31 01:21:47;;;;;;;12.07;10.10;;;9.20;99.90;;;;;;5035429;28;20686;-63
2022/03/31 01:24:17;;;;;;;12.03;9.67;;;9.10;99.90;;;;;;5035553;28;20210;-62
2022/03/31 01:26:44;;;;;;;11.70;10.10;;;9.10;99.90;;;;;;5035621;28;20674;-62
2022/03/31 01:29:11;;;;;;;12.57;10.73;;;8.90;99.90;;;;;;5035780;28;20226;-63
2022/03/31 01:31:39;;;;;;;11.73;10.10;;;8.90;99.90;;;;;;5035614;28;20206;-63
2022/03/31 01:34:07;;;;;;;12.70;10.70;;;8.70;99.90;;;;;;5035323;28;20745;-63
2022/03/31 01:36:34;;;;;;;13.20;10.27;;;8.70;99.90;;;;;;5035195;28;20267;-62
2022/03/31 01:39:00;;;;;;;11.93;10.63;;;8.60;99.90;;;;;;5035165;28;20245;-63
2022/03/31 01:41:29;;;;;;;11.53;9.53;;;8.50;99.90;;;;;;5035386;28;20206;-63
2022/03/31 01:43:56;;;;;;;13.27;10.53;;;8.50;99.90;;;;;;5035268;28;20293;-63
2022/03/31 01:46:23;;;;;;;11.17;9.40;;;8.40;99.90;;;;;;5035198;28;20210;-62
2022/03/31 01:48:51;;;;;;;11.47;9.50;;;8.20;99.90;;;;;;5034590;28;20284;-63
2022/03/31 01:51:17;;;;;;;13.63;10.60;;;8.20;99.90;;;;;;5035488;28;20256;-62
2022/03/31 01:53:44;;;;;;;11.63;10.30;;;8.20;99.90;;;;;;5034874;28;20214;-62
2022/03/31 01:56:11;;;;;;;10.43;9.33;;;8.20;99.90;;;;;;5034871;28;20752;-63
2022/03/31 01:58:39;;;;;;;11.57;9.87;;;8.20;99.90;;;;;;5034776;28;20206;-62
2022/03/31 02:01:06;;;;;;;12.40;10.03;;;8.20;99.90;;;;;;5034947;28;20245;-63
2022/03/31 02:03:33;;;;;;;11.17;9.90;;;8.20;99.90;;;;;;5034780;28;20210;-63
2022/03/31 02:06:00;;;;;;;12.20;10.37;;;8.10;99.90;;;;;;5034692;28;20205;-63
2022/03/31 02:08:27;;;;;;;13.33;10.27;;;8.10;99.90;;;;;;5034474;28;20233;-63
2022/03/31 02:10:53;;;;;;;14.37;10.47;;;8.10;99.90;;;;;;5034884;28;20260;-62
2022/03/31 02:13:20;;;;;;;12.13;10.63;;;8.00;99.90;;;;;;5034109;28;20284;-62
2022/03/31 02:15:48;;;;;;;11.87;10.53;;;8.00;99.90;;;;;;5034342;28;20245;-62
2022/03/31 02:18:15;;;;;;;12.40;10.93;;;7.90;99.90;;;;;;5034814;28;20225;-62
2022/03/31 02:20:41;;;;;;;12.07;10.77;;;7.80;99.90;;;;;;5035088;28;20640;-62
2022/03/31 02:23:09;;;;;;;13.57;11.07;;;7.70;99.90;;;;;;5035056;28;20576;-62
2022/03/31 02:25:36;;;;;;;12.83;11.47;;;7.60;99.90;;;;;;5035090;28;20262;-63
2022/03/31 02:28:03;;;;;;;14.63;11.13;;;7.60;99.90;;;;;;5034347;28;20202;-62
2022/03/31 02:30:29;;;;;;;13.47;11.20;;;7.60;99.90;;;;;;5034222;28;20313;-62
2022/03/31 02:32:59;;;;;;;13.90;11.47;;;7.60;99.90;;;;;;5034294;28;20643;-62
2022/03/31 02:35:26;;;;;;;13.13;11.07;;;7.50;99.90;;;;;;5034627;28;20232;-62
2022/03/31 02:37:53;;;;;;;12.43;10.73;;;7.60;99.90;;;;;;5034388;28;20256;-62
2022/03/31 02:40:19;;;;;;;14.23;10.93;;;7.60;99.90;;;;;;5034268;28;20276;-62
2022/03/31 02:42:46;;;;;;;13.60;11.80;;;7.60;99.90;;;;;;5034218;28;20221;-62
2022/03/31 02:45:13;;;;;;;13.00;11.10;;;7.60;99.90;;;;;;5034364;28;20645;-62
2022/03/31 02:47:40;;;;;;;14.30;11.30;;;7.70;99.90;;;;;;5033734;28;20213;-63
2022/03/31 02:50:09;;;;;;;14.23;11.67;;;7.70;99.90;;;;;;5033747;28;20242;-62
2022/03/31 02:55:25;;;;;;;13.20;10.97;;;7.60;99.90;;;;;;5034466;28;20205;-62
2022/03/31 02:57:53;;;;;;;12.17;10.50;;;7.60;99.90;;;;;;5033507;28;20213;-62
2022/03/31 03:00:20;;;;;;;13.70;11.47;;;7.60;99.90;;;;;;5033714;28;20722;-63
2022/03/31 03:02:46;;;;;;;12.20;10.90;;;7.60;99.90;;;;;;5033818;28;20238;-62
2022/03/31 03:05:15;;;;;;;12.13;10.83;;;7.50;99.90;;;;;;5034097;28;20252;-63
2022/03/31 03:07:41;;;;;;;12.03;10.53;;;7.40;99.90;;;;;;5033613;28;20210;-63
2022/03/31 03:10:09;;;;;;;13.00;10.77;;;7.30;99.90;;;;;;5033368;28;20234;-62
2022/03/31 03:12:36;;;;;;;12.83;11.03;;;7.30;99.90;;;;;;5033480;28;20723;-63
2022/03/31 03:15:03;;;;;;;13.83;12.00;;;7.30;99.90;;;;;;5033622;28;20212;-62
2022/03/31 03:17:29;;;;;;;13.43;11.37;;;7.40;99.90;;;;;;5033460;28;20635;-62
2022/03/31 03:19:56;;;;;;;13.73;11.23;;;7.40;99.90;;;;;;5033054;28;20222;-63
2022/03/31 03:22:25;;;;;;;13.97;10.90;;;7.40;99.90;;;;;;5033323;28;20210;-62
2022/03/31 03:24:52;;;;;;;12.43;11.07;;;7.50;99.90;;;;;;5032712;28;20690;-62
2022/03/31 03:27:19;;;;;;;13.70;11.33;;;7.50;99.90;;;;;;5033268;28;20206;-62
2022/03/31 03:29:46;;;;;;;13.20;11.47;;;7.60;99.90;;;;;;5032803;28;20237;-62
2022/03/31 03:32:14;;;;;;;13.53;11.37;;;7.50;99.90;;;;;;5033362;28;20202;-63
2022/03/31 03:34:41;;;;;;;12.87;11.10;;;7.60;99.90;;;;;;5033359;28;20297;-62
2022/03/31 03:37:08;;;;;;;14.40;11.10;;;7.50;99.90;;;;;;5032996;28;20578;-62
2022/03/31 03:39:36;;;;;;;14.13;12.03;;;7.50;99.90;;;;;;5032666;28;20218;-62
2022/03/31 03:42:03;;;;;;;12.67;10.97;;;7.50;99.90;;;;;;5033037;28;20210;-64
2022/03/31 03:44:30;;;;;;;12.30;11.00;;;7.50;99.90;;;;;;5033061;28;20297;-62
2022/03/31 03:46:57;;;;;;;12.67;10.90;;;7.50;99.90;;;;;;5032871;28;20210;-62
2022/03/31 03:49:24;;;;;;;13.23;11.30;;;7.50;99.90;;;;;;5032660;28;20234;-63
2022/03/31 03:51:51;;;;;;;14.70;11.50;;;7.60;99.90;;;;;;5032822;28;20202;-63
2022/03/31 03:54:18;;;;;;;13.00;11.30;;;7.50;99.90;;;;;;5032695;28;20631;-63
2022/03/31 03:56:46;;;;;;;14.07;10.73;;;7.50;99.90;;;;;;5032875;28;20264;-63
2022/03/31 03:59:12;;;;;;;13.10;10.77;;;7.50;99.90;;;;;;5032487;28;20225;-63
2022/03/31 04:01:39;;;;;;;12.57;10.97;;;7.50;99.90;;;;;;5032708;28;20736;-63
2022/03/31 04:04:06;;;;;;;13.10;11.47;;;7.50;99.90;;;;;;5032535;28;20633;-63
2022/03/31 04:06:32;;;;;;;12.20;10.33;;;7.50;99.90;;;;;;5032404;28;20213;-63
2022/03/31 04:08:59;;;;;;;12.77;11.20;;;7.50;99.90;;;;;;5032285;28;20222;-63
2022/03/31 04:11:26;;;;;;;13.20;11.07;;;7.50;99.90;;;;;;5032551;28;20210;-62
2022/03/31 04:13:54;;;;;;;13.13;11.17;;;7.60;99.90;;;;;;5032402;28;20559;-62
2022/03/31 04:16:20;;;;;;;12.40;11.10;;;7.60;99.90;;;;;;5032349;28;20583;-62
2022/03/31 04:18:47;;;;;;;15.63;13.43;;;7.70;99.90;;;;;;5032002;28;20309;-63
2022/03/31 04:21:14;;;;;;;13.00;10.97;;;7.80;99.90;;;;;;5032036;28;20206;-62
2022/03/31 04:23:41;;;;;;;14.00;10.73;;;7.80;99.90;;;;;;5032392;28;20302;-63
2022/03/31 04:26:08;;;;;;;12.53;10.73;;;7.80;99.90;;;;;;5032253;28;20210;-62
2022/03/31 04:28:35;;;;;;;13.50;11.60;;;7.80;99.90;;;;;;5031872;28;20206;-62
2022/03/31 04:31:03;;;;;;;11.37;10.13;;;7.70;99.90;;;;;;5032019;28;20206;-64
2022/03/31 04:33:31;;;;;;;11.63;9.80;;;7.80;99.90;;;;;;5032086;28;20666;-62
2022/03/31 04:35:57;;;;;;;13.17;11.47;;;7.70;99.90;;;;;;5032190;28;20636;-63
2022/03/31 04:38:24;;;;;;;11.97;10.60;;;7.80;99.90;;;;;;5031012;28;20214;-63
2022/03/31 04:40:51;;;;;;;14.57;11.37;;;7.80;99.90;;;;;;5032278;28;20210;-63
2022/03/31 04:43:17;;;;;;;13.13;11.73;;;7.90;99.90;;;;;;5032075;28;20202;-64
2022/03/31 04:45:44;;;;;;;13.17;11.23;;;7.80;99.90;;;;;;5031772;28;20591;-64
2022/03/31 04:48:12;;;;;;;15.10;11.27;;;7.80;99.90;;;;;;5031471;28;20206;-63
2022/03/31 04:50:39;;;;;;;13.43;11.20;;;7.80;99.90;;;;;;5030891;28;20238;-63
2022/03/31 04:53:07;;;;;;;13.37;11.73;;;7.70;99.90;;;;;;5031161;28;20339;-64
2022/03/31 04:55:34;;;;;;;13.07;11.67;;;7.70;99.90;;;;;;5031234;28;20237;-63
2022/03/31 04:58:01;;;;;;;14.17;11.60;;;7.60;99.90;;;;;;5030951;28;20209;-62
2022/03/31 05:00:27;;;;;;;13.60;11.97;;;7.60;99.90;;;;;;5030966;28;20313;-63
2022/03/31 05:02:55;;;;;;;16.03;12.17;;;7.60;99.90;;;;;;5030804;28;20209;-63
2022/03/31 05:05:24;;;;;;;14.30;12.77;;;7.60;99.90;;;;;;5030841;28;20655;-63
2022/03/31 05:07:51;;;;;;;14.63;12.73;;;7.60;99.90;;;;;;5030901;28;20202;-62
2022/03/31 05:10:17;;;;;;;16.23;13.97;;;7.60;99.90;;;;;;5030600;28;20226;-63
2022/03/31 05:12:44;;;;;;;14.37;12.50;;;7.60;99.90;;;;;;5030915;28;20210;-64
2022/03/31 05:15:11;;;;;;;13.37;11.60;;;7.70;99.90;;;;;;5030760;28;20206;-63
2022/03/31 05:17:39;;;;;;;18.50;13.63;;;7.70;99.90;;;;;;5030818;28;20302;-64
2022/03/31 05:20:07;;;;;;;13.80;12.23;;;7.80;99.90;;;;;;5030751;28;20226;-64
2022/03/31 05:22:36;;;;;;;14.10;12.17;;;7.80;99.90;;;;;;5030820;28;20637;-64
2022/03/31 05:25:03;;;;;;;14.20;12.67;;;7.90;99.90;;;;;;5030823;28;20301;-64
2022/03/31 05:27:29;;;;;;;15.07;11.83;;;7.90;99.90;;;;;;5030627;28;20252;-64
2022/03/31 05:29:57;;;;;;;15.63;13.00;;;8.00;99.90;;;;;;5030095;28;20662;-63
2022/03/31 05:32:23;;;;;;;14.27;12.40;;;8.10;99.90;;;;;;5030458;28;20663;-63
2022/03/31 05:34:50;;;;;;;13.87;11.73;;;8.10;99.90;;;;;;5030635;28;20632;-64
2022/03/31 05:37:17;;;;;;;13.87;11.80;;;8.10;99.90;;;;;;5030525;28;20210;-65
2022/03/31 05:39:45;;;;;;;13.47;12.07;;;8.10;99.90;;;;;;5030055;28;20734;-63
2022/03/31 05:42:11;;;;;;;13.73;12.13;;;8.20;99.90;;;;;;5030445;28;20206;-64
2022/03/31 05:44:38;;;;;;;11.90;10.70;;;8.20;99.90;;;;;;5030298;28;20265;-63
2022/03/31 05:47:06;;;;;;;12.23;10.93;;;8.20;99.90;;;;;;5030280;28;20213;-63
2022/03/31 05:49:32;;;;;;;12.70;11.37;;;8.20;99.90;;;;;;4997013;28;1034630;-64
2022/03/31 05:51:59;;;;;;;12.37;11.07;;;8.20;99.90;;;;;;5034897;28;20720;-64
2022/03/31 05:54:26;;;;;;;13.20;11.37;;;8.20;99.90;;;;;;5035163;28;20222;-63
2022/03/31 05:56:54;;;;;;;13.70;11.80;;;8.20;99.90;;;;;;5034906;28;20213;-64
2022/03/31 05:59:21;;;;;;;13.27;11.87;;;8.30;99.90;;;;;;5034413;28;20233;-64
2022/03/31 06:01:47;;;;;;;12.73;11.37;;;8.40;99.90;;;;;;5034852;28;20210;-64
2022/03/31 06:04:16;;;;;;;13.93;11.93;;;8.60;99.90;;;;;;5034368;28;20252;-63
2022/03/31 06:06:43;;;;;;;13.73;11.63;;;8.70;99.90;;;;;;5034829;28;20210;-64
2022/03/31 06:09:09;;;;;;;15.10;11.77;;;8.80;99.90;;;;;;5034539;28;20235;-61
2022/03/31 06:11:36;;;;;;;12.87;11.47;;;8.70;99.90;;;;;;5035296;28;20210;-63
2022/03/31 06:14:05;;;;;;;13.17;11.57;;;8.70;99.90;;;;;;5035117;28;20206;-64
2022/03/31 06:16:31;;;;;;;13.47;11.40;;;8.80;99.90;;;;;;5034652;28;20206;-63
2022/03/31 06:18:58;;;;;;;12.57;11.23;;;8.80;99.90;;;;;;5034252;28;20232;-63
2022/03/31 06:21:25;;;;;;;13.20;11.80;;;8.60;99.90;;;;;;5034413;28;20210;-62
2022/03/31 06:23:51;;;;;;;13.97;12.37;;;8.70;99.90;;;;;;5034325;28;20256;-62
2022/03/31 06:26:18;;;;;;;13.80;12.03;;;8.80;99.90;;;;;;5034255;28;20206;-63
2022/03/31 06:28:45;;;;;;;13.63;11.73;;;8.80;99.90;;;;;;5034259;28;20229;-64
2022/03/31 06:31:13;;;;;;;16.10;11.97;;;8.80;99.90;;;;;;5034291;28;20226;-64
2022/03/31 06:33:40;;;;;;;15.77;12.97;;;8.80;99.90;;;;;;5033980;28;20232;-62
2022/03/31 06:36:07;;;;;;;15.33;12.37;;;8.90;99.90;;;;;;5034247;28;20210;-61
2022/03/31 06:38:34;;;;;;;13.93;12.00;;;8.90;99.90;;;;;;5033931;28;20582;-62
2022/03/31 06:41:08;;;;;;;13.70;12.20;;;9.00;99.90;;;;;;5034117;28;20206;-62
2022/03/31 06:43:35;;;;;;;13.80;12.00;;;9.00;99.90;;;;;;5034453;28;20206;-64
2022/03/31 06:46:02;;;;;;;14.17;12.10;;;9.00;99.90;;;;;;5034081;28;20213;-64
2022/03/31 06:48:30;;;;;;;16.47;14.70;;;9.10;99.90;;;;;;5033367;28;20210;-64
2022/03/31 06:50:58;;;;;;;16.17;13.43;;;9.20;99.90;;;;;;5033996;28;20226;-62
2022/03/31 06:53:24;;;;;;;15.17;12.77;;;9.40;99.90;;;;;;5033801;28;20202;-62
2022/03/31 06:55:51;;;;;;;13.63;12.00;;;9.50;99.90;;;;;;5034093;28;20209;-63
2022/03/31 06:58:18;;;;;;;14.20;12.43;;;9.50;99.90;;;;;;5033827;28;20206;-61
2022/03/31 07:00:45;;;;;;;13.90;12.40;;;9.60;99.90;;;;;;5032930;28;20644;-61
2022/03/31 07:03:12;;;;;;;13.83;12.37;;;9.70;99.90;;;;;;5033667;28;20202;-62
2022/03/31 07:05:40;;;;;;;15.33;13.20;;;9.80;99.90;;;;;;5033573;28;20202;-62
2022/03/31 07:08:07;;;;;;;14.77;12.23;;;9.90;99.90;;;;;;5033451;28;20206;-62
2022/03/31 07:10:34;;;;;;;13.33;11.93;;;10.00;99.90;;;;;;5033353;28;20226;-62
2022/03/31 07:13:01;;;;;;;14.47;12.67;;;10.10;99.90;;;;;;5033641;28;20203;-62
2022/03/31 07:15:28;;;;;;;13.53;11.90;;;10.30;99.90;;;;;;5033636;28;20297;-62
2022/03/31 07:17:55;;;;;;;13.80;11.97;;;10.40;99.90;;;;;;5033239;28;20618;-64
2022/03/31 07:20:22;;;;;;;14.13;12.10;;;10.50;99.90;;;;;;5032729;28;20265;-63
2022/03/31 07:22:51;;;;;;;14.23;12.73;;;10.50;99.90;;;;;;5033524;28;20206;-62
2022/03/31 07:25:18;;;;;;;14.10;12.37;;;10.50;99.90;;;;;;5033334;28;20241;-64
2022/03/31 07:27:45;;;;;;;15.67;12.80;;;10.40;99.90;;;;;;5033334;28;20671;-60
2022/03/31 07:30:15;;;;;;;14.07;12.57;;;10.40;99.90;;;;;;5032877;28;20226;-61
2022/03/31 07:32:49;;;;;;;14.87;12.53;;;10.60;99.90;;;;;;5033371;28;20202;-60
2022/03/31 07:35:16;;;;;;;14.43;11.73;;;10.80;99.90;;;;;;5033054;28;20275;-60
2022/03/31 07:37:43;;;;;;;13.47;11.87;;;11.10;99.90;;;;;;5032893;28;20210;-61
2022/03/31 07:40:12;;;;;;;13.33;11.93;;;11.20;99.90;;;;;;5032848;28;20222;-61
2022/03/31 07:42:39;;;;;;;14.83;12.57;;;11.50;99.90;;;;;;5033021;28;20301;-61
2022/03/31 07:45:07;;;;;;;15.77;12.23;;;11.60;99.90;;;;;;5032973;28;20210;-61
2022/03/31 07:47:33;;;;;;;14.70;12.00;;;11.60;99.90;;;;;;5033567;28;20202;-61
2022/03/31 07:50:00;;;;;;;13.37;11.97;;;11.70;99.90;;;;;;5033062;28;20230;-61
2022/03/31 07:52:27;;;;;;;14.93;11.93;;;11.60;99.90;;;;;;5032996;28;20214;-62
2022/03/31 07:54:54;;;;;;;14.13;12.40;;;11.40;99.90;;;;;;5033163;28;20206;-61
2022/03/31 07:57:22;;;;;;;14.10;12.30;;;11.10;99.90;;;;;;5032762;28;20206;-61
2022/03/31 07:59:48;;;;;;;15.30;13.00;;;11.00;99.90;;;;;;5032404;28;20226;-61
2022/03/31 08:02:17;;;;;;;14.57;12.87;;;10.90;99.90;;;;;;5032243;28;20260;-61
2022/03/31 08:04:44;;;;;;;13.53;12.00;;;10.90;99.90;;;;;;5032724;28;20203;-60
2022/03/31 08:07:10;;;;;;;15.33;12.27;;;10.80;99.90;;;;;;5032633;28;20206;-60
2022/03/31 08:09:37;;;;;;;14.07;12.57;;;10.90;99.90;;;;;;5032165;28;20234;-60
2022/03/31 08:12:05;;;;;;;15.27;13.17;;;11.00;99.90;;;;;;5032499;28;20209;-60
2022/03/31 08:14:33;;;;;;;15.00;12.57;;;11.20;99.90;;;;;;5032314;28;20206;-61
2022/03/31 08:17:00;;;;;;;14.17;12.67;;;11.20;99.90;;;;;;5032760;28;20215;-61
2022/03/31 08:19:30;;;;;;;13.90;12.40;;;11.10;99.90;;;;;;5032076;28;20253;-62
2022/03/31 08:21:57;;;;;;;14.27;12.43;;;11.00;99.90;;;;;;5032363;28;20662;-61
2022/03/31 08:24:24;;;;;;;14.87;12.43;;;10.80;99.90;;;;;;5032229;28;20202;-60
2022/03/31 08:26:51;;;;;;;14.07;11.73;;;10.80;99.90;;;;;;5032243;28;20213;-62
2022/03/31 08:29:18;;;;;;;15.50;13.03;;;11.10;99.90;;;;;;5031690;28;20745;-61
2022/03/31 08:31:46;;;;;;;14.40;12.10;;;11.30;99.90;;;;;;5032208;28;20258;-66
2022/03/31 08:34:13;;;;;;;14.83;12.60;;;11.10;99.90;;;;;;5032537;28;20206;-65
2022/03/31 08:36:39;;;;;;;15.13;12.13;;;10.90;99.90;;;;;;5032226;28;20210;-61
2022/03/31 08:39:07;;;;;;;16.03;12.83;;;10.80;99.90;;;;;;5031798;28;20222;-61
2022/03/31 08:41:34;;;;;;;13.33;11.97;;;11.10;99.90;;;;;;5031870;28;20210;-61
2022/03/31 08:44:01;;;;;;;15.40;12.63;;;11.40;99.90;;;;;;5031959;28;20689;-61
2022/03/31 08:46:32;;;;;;;22.30;17.53;;;11.70;99.90;;;;;;5031804;28;20267;-60
2022/03/31 08:49:00;;;;;;;25.70;21.60;;;12.00;99.90;;;;;;5031378;28;20292;-60
2022/03/31 08:51:28;;;;;;;15.67;12.60;;;12.00;99.90;;;;;;5031565;28;20230;-60
2022/03/31 08:53:55;;;;;;;15.77;12.90;;;12.10;99.90;;;;;;5031413;28;20206;-60
2022/03/31 08:56:22;;;;;;;13.83;12.43;;;12.20;99.90;;;;;;5031331;28;20213;-60
2022/03/31 08:58:49;;;;;;;14.60;13.03;;;12.30;99.90;;;;;;5031430;28;20237;-60
2022/03/31 09:01:16;;;;;;;15.97;12.97;;;12.40;99.90;;;;;;5031477;28;20206;-60
2022/03/31 09:03:44;;;;;;;15.13;12.57;;;12.50;99.90;;;;;;5031560;28;20674;-60
2022/03/31 09:06:23;;;;;;;15.33;12.63;;;12.50;99.90;;;;;;5031566;28;20260;-60
2022/03/31 09:09:00;;;;;;;15.40;12.67;;;12.50;99.90;;;;;;5031250;28;20233;-60
2022/03/31 09:11:28;;;;;;;14.57;12.40;;;12.50;99.90;;;;;;5031677;28;20228;-60
2022/03/31 09:13:57;;;;;;;15.03;12.80;;;12.50;99.90;;;;;;5031935;28;20214;-60
2022/03/31 09:16:33;;;;;;;14.40;12.90;;;12.50;99.90;;;;;;5031605;28;20662;-60
2022/03/31 09:19:01;;;;;;;15.67;13.37;;;12.70;99.90;;;;;;5031254;28;20566;-60
2022/03/31 09:21:30;;;;;;;14.97;13.07;;;12.70;99.90;;;;;;5031350;28;20206;-60
2022/03/31 09:23:58;;;;;;;14.27;12.33;;;12.80;99.90;;;;;;5033509;28;20253;-60
2022/03/31 09:26:27;;;;;;;17.33;13.20;;;12.90;99.90;;;;;;5035265;28;20210;-60
2022/03/31 09:28:54;;;;;;;15.47;13.63;;;12.90;99.90;;;;;;5035218;28;20222;-60
2022/03/31 09:31:26;;;;;;;14.93;13.03;;;12.80;99.90;;;;;;5035323;28;20218;-64
2022/03/31 09:33:57;;;;;;;14.03;12.27;;;12.80;99.90;;;;;;5035460;28;20245;-60
2022/03/31 09:36:25;;;;;;;16.33;13.50;;;12.90;99.90;;;;;;5035199;28;20213;-60
2022/03/31 09:38:56;;;;;;;16.27;13.07;;;12.50;99.90;;;;;;5032587;28;20741;-62
2022/03/31 09:41:24;;;;;;;18.33;13.83;;;12.30;99.90;;;;;;5033315;28;20213;-67
2022/03/31 09:43:52;;;;;;;20.37;14.00;;;12.00;99.90;;;;;;5034996;28;20260;-63
2022/03/31 09:46:21;;;;;;;16.53;13.57;;;12.00;99.90;;;;;;5034841;28;20210;-62
2022/03/31 09:48:49;;;;;;;15.63;12.63;;;12.10;99.90;;;;;;5034657;28;20292;-59
2022/03/31 09:51:16;;;;;;;14.00;12.60;;;12.40;99.90;;;;;;5034155;28;20222;-58
2022/03/31 09:53:42;;;;;;;15.27;13.07;;;12.50;99.90;;;;;;5034737;28;20210;-59
2022/03/31 09:56:12;;;;;;;14.67;12.90;;;12.40;99.90;;;;;;5034584;28;20206;-61
2022/03/31 09:58:39;;;;;;;15.37;13.70;;;12.10;99.90;;;;;;5034374;28;20202;-63
2022/03/31 10:01:06;;;;;;;17.23;13.90;;;12.00;99.90;;;;;;5034957;28;20268;-63
2022/03/31 10:03:33;;;;;;;14.97;12.60;;;12.30;99.90;;;;;;5034257;28;20210;-62
2022/03/31 10:06:01;;;;;;;16.10;13.80;;;12.70;99.90;;;;;;5034730;28;20206;-64
2022/03/31 10:08:34;;;;;;;15.50;13.20;;;13.10;99.90;;;;;;5034477;28;20264;-63
2022/03/31 10:11:01;;;;;;;13.90;12.37;;;13.60;99.90;;;;;;5034679;28;20272;-65
2022/03/31 10:13:36;;;;;;;15.00;13.40;;;14.10;99.90;;;;;;5034508;28;20217;-61
2022/03/31 10:16:08;;;;;;;16.00;13.17;;;14.30;99.90;;;;;;5034491;28;20300;-61
2022/03/31 10:18:35;;;;;;;14.87;12.17;;;14.60;99.90;;;;;;5034530;28;20211;-62
2022/03/31 10:21:02;;;;;;;13.17;11.77;;;14.70;99.90;;;;;;5034528;28;20234;-60
2022/03/31 10:26:25;;;;;;;15.67;13.13;;;14.90;99.90;;;;;;5035198;28;20249;-62
2022/03/31 10:28:57;;;;;;;16.07;13.43;;;14.90;99.90;;;;;;5034519;28;20582;-62
2022/03/31 10:31:35;;;;;;;14.57;12.83;;;14.80;99.90;;;;;;5034662;28;20229;-62
2022/03/31 10:34:01;;;;;;;15.70;12.70;;;14.90;99.90;;;;;;5033911;28;20300;-61
2022/03/31 10:36:38;;;;;;;14.80;12.80;;;15.00;99.90;;;;;;5032818;28;20677;-61
2022/03/31 10:39:07;;;;;;;14.90;12.87;;;15.30;99.90;;;;;;5033961;28;20254;-62
2022/03/31 10:41:36;;;;;;;14.88;13.27;;;15.60;99.90;;;;;;5033222;28;20444;-66
2022/03/31 10:44:15;;;;;;;14.73;13.13;;;15.80;99.90;;;;;;5033990;28;20256;-61
2022/03/31 10:46:44;;;;;;;13.67;11.30;;;16.00;99.90;;;;;;5033999;28;20213;-61
2022/03/31 10:49:13;;;;;;;15.20;13.17;;;16.20;99.90;;;;;;5033549;28;20307;-60
2022/03/31 10:51:42;;;;;;;15.90;12.30;;;16.30;99.80;;;;;;5033465;28;20752;-60
2022/03/31 10:54:12;;;;;;;14.33;12.50;;;16.40;99.50;;;;;;5034092;28;20626;-60
2022/03/31 10:56:40;;;;;;;13.80;12.30;;;16.10;99.60;;;;;;5033836;28;20218;-60
2022/03/31 10:59:08;;;;;;;12.40;11.03;;;16.00;99.80;;;;;;5033308;28;20230;-60
2022/03/31 11:01:38;;;;;;;15.10;13.37;;;15.70;99.90;;;;;;5033712;28;20206;-60
2022/03/31 11:04:08;;;;;;;14.67;12.13;;;15.60;99.90;;;;;;5034000;28;20210;-60
2022/03/31 11:06:46;;;;;;;15.00;13.27;;;15.60;99.90;;;;;;5033843;28;20297;-60
2022/03/31 11:09:20;;;;;;;13.60;12.00;;;15.70;99.90;;;;;;5033495;28;20702;-60
2022/03/31 11:11:50;;;;;;;13.93;11.90;;;15.60;99.80;;;;;;5033347;28;20764;-60
2022/03/31 11:14:19;;;;;;;15.93;13.10;;;15.40;99.90;;;;;;5033718;28;20697;-60
2022/03/31 11:16:46;;;;;;;15.43;12.77;;;15.00;99.90;;;;;;5033421;28;20203;-60
2022/03/31 11:19:13;;;;;;;13.83;11.80;;;15.20;99.90;;;;;;5032984;28;20299;-61
2022/03/31 11:21:42;;;;;;;15.60;11.97;;;15.40;99.90;;;;;;5033409;28;20210;-60
2022/03/31 11:24:11;;;;;;;16.23;12.03;;;15.50;99.90;;;;;;5033392;28;20210;-60
2022/03/31 11:26:40;;;;;;;16.43;12.53;;;15.60;99.90;;;;;;5033312;28;20233;-60
2022/03/31 11:29:11;;;;;;;16.40;13.00;;;15.80;99.70;;;;;;5033053;28;20232;-60
2022/03/31 11:31:43;;;;;;;14.77;12.73;;;15.70;99.70;;;;;;5032984;28;20226;-60
2022/03/31 11:34:17;;;;;;;14.50;12.40;;;15.80;99.70;;;;;;5033128;28;20206;-60
2022/03/31 11:36:44;;;;;;;15.03;12.70;;;15.50;99.90;;;;;;5033057;28;20300;-60
2022/03/31 11:39:11;;;;;;;13.90;12.37;;;15.40;99.90;;;;;;5032903;28;20441;-60
2022/03/31 11:41:39;;;;;;;17.17;12.77;;;15.20;99.90;;;;;;5033139;28;20289;-60
2022/03/31 11:44:07;;;;;;;18.57;12.17;;;15.10;99.90;;;;;;5032897;28;20297;-60
2022/03/31 11:46:40;;;;;;;14.57;12.27;;;15.30;99.90;;;;;;5032625;28;20244;-60
2022/03/31 11:49:14;;;;;;;15.10;12.67;;;15.40;99.90;;;;;;5032231;28;20283;-59
2022/03/31 11:51:41;;;;;;;15.47;12.73;;;15.30;99.90;;;;;;5032983;28;20233;-59
2022/03/31 11:54:09;;;;;;;18.30;13.23;;;15.30;99.90;;;;;;5032801;28;20210;-60
2022/03/31 11:56:36;;;;;;;22.80;15.90;;;15.30;99.90;;;;;;5032677;28;20214;-59
2022/03/31 11:59:03;;;;;;;17.27;13.10;;;15.40;99.90;;;;;;5032154;28;20272;-60
2022/03/31 12:01:33;;;;;;;17.03;12.70;;;15.60;99.90;;;;;;5032655;28;20210;-60
2022/03/31 12:04:01;;;;;;;16.37;13.57;;;15.70;99.90;;;;;;5032405;28;20264;-60
2022/03/31 12:06:31;;;;;;;16.50;13.70;;;15.80;99.90;;;;;;5032758;28;20566;-62
2022/03/31 12:08:59;;;;;;;16.00;13.00;;;16.10;99.50;;;;;;5032330;28;20292;-60
2022/03/31 12:11:29;;;;;;;16.07;12.33;;;16.40;99.10;;;;;;5032488;28;20254;-60
2022/03/31 12:13:58;;;;;;;14.98;12.23;;;16.70;98.90;;;;;;5032377;28;20563;-59
2022/03/31 12:16:26;;;;;;;14.47;12.23;;;16.80;98.70;;;;;;5032181;28;20237;-59
2022/03/31 12:18:57;;;;;;;15.50;12.07;;;16.80;98.40;;;;;;5032025;28;20272;-60
2022/03/31 12:21:26;;;;;;;15.17;12.67;;;16.80;98.30;;;;;;5032644;28;20206;-59
2022/03/31 12:23:57;;;;;;;15.67;12.83;;;17.00;98.10;;;;;;5032369;28;20221;-60
2022/03/31 12:26:24;;;;;;;15.50;12.70;;;17.30;97.60;;;;;;5031911;28;20210;-60
2022/03/31 12:28:51;;;;;;;14.07;12.00;;;17.20;97.60;;;;;;5031988;28;20317;-60
2022/03/31 12:31:23;;;;;;;15.37;12.00;;;17.00;97.90;;;;;;5032414;28;20652;-60
2022/03/31 12:33:52;;;;;;;13.93;11.97;;;16.80;98.10;;;;;;5031968;28;20207;-60
2022/03/31 12:36:26;;;;;;;13.70;12.25;;;16.60;98.40;;;;;;5032193;28;20256;-60
2022/03/31 12:38:56;;;;;;;14.87;12.07;;;16.30;98.50;;;;;;5031760;28;20257;-60
2022/03/31 12:41:25;;;;;;;15.13;11.87;;;15.80;99.20;;;;;;5031701;28;20260;-60